Terminal Aerodrome Forecast
Issued by NWS Charleston, WV

Home | Current Version | Previous Version | Text Only | Print | Product List | Glossary On
Versions: 1 2 3 4 5 6 7 8 9 10 11 12 13 14 15 16 17 18 19 20 21 22 23 24 25 26 27 28 29
000
FTUS41 KRLX 241132
TAFEKN
TAF
KEKN 241132Z 2412/2512 32003KT 4SM -SHRASN BR BKN009 OVC015
     FM241400 29009KT P6SM OVC009
     FM241600 29010G18KT P6SM OVC010
     FM250500 28009KT P6SM SCT016
     FM250600 27008KT P6SM SCT027
     FM250800 26006KT P6SM SCT090=

USA.gov is the U.S. government's official web portal to all federal, state and local government web resources and services.